sensor_id;sensor_type;location;lat;lon;timestamp;pressure;altitude;pressure_sealevel;temperature;humidity
61786;BME280;47692;53.714;11.372;2022-07-10T00:01:47;101481.69;;;11.55;100.00
61786;BME280;47692;53.714;11.372;2022-07-10T00:04:13;101484.34;;;11.54;100.00
61786;BME280;47692;53.714;11.372;2022-07-10T00:06:38;101478.22;;;11.53;100.00
61786;BME280;47692;53.714;11.372;2022-07-10T00:09:07;101476.59;;;11.46;100.00
61786;BME280;47692;53.714;11.372;2022-07-10T00:11:32;101475.72;;;11.47;100.00
61786;BME280;47692;53.714;11.372;2022-07-10T00:13:58;101473.94;;;11.49;100.00
61786;BME280;47692;53.714;11.372;2022-07-10T00:16:24;101480.16;;;11.42;100.00
61786;BME280;47692;53.714;11.372;2022-07-10T00:18:50;101467.00;;;11.45;100.00
61786;BME280;47692;53.714;11.372;2022-07-10T00:21:15;101469.72;;;11.39;100.00
61786;BME280;47692;53.714;11.372;2022-07-10T00:23:41;101468.84;;;11.40;100.00
61786;BME280;47692;53.714;11.372;2022-07-10T00:26:07;101460.06;;;11.44;100.00
61786;BME280;47692;53.714;11.372;2022-07-10T00:28:32;101453.19;;;11.37;100.00
61786;BME280;47692;53.714;11.372;2022-07-10T00:30:58;101454.00;;;11.42;100.00
61786;BME280;47692;53.714;11.372;2022-07-10T00:33:23;101451.38;;;11.42;100.00
61786;BME280;47692;53.714;11.372;2022-07-10T00:35:48;101440.94;;;11.42;100.00
61786;BME280;47692;53.714;11.372;2022-07-10T00:38:14;101438.34;;;11.39;100.00
61786;BME280;47692;53.714;11.372;2022-07-10T00:40:39;101443.53;;;11.42;100.00
61786;BME280;47692;53.714;11.372;2022-07-10T00:43:08;101440.94;;;11.42;100.00
61786;BME280;47692;53.714;11.372;2022-07-10T00:45:34;101440.88;;;11.46;100.00
61786;BME280;47692;53.714;11.372;2022-07-10T00:48:00;101441.66;;;11.52;100.00
61786;BME280;47692;53.714;11.372;2022-07-10T00:50:25;101430.41;;;11.46;100.00
61786;BME280;47692;53.714;11.372;2022-07-10T00:52:51;101441.69;;;11.50;99.40
61786;BME280;47692;53.714;11.372;2022-07-10T00:55:17;101437.31;;;11.51;99.24
61786;BME280;47692;53.714;11.372;2022-07-10T00:57:42;101446.84;;;11.53;99.63
61786;BME280;47692;53.714;11.372;2022-07-10T01:00:08;101440.75;;;11.54;99.02
61786;BME280;47692;53.714;11.372;2022-07-10T01:02:39;101440.75;;;11.54;99.33
61786;BME280;47692;53.714;11.372;2022-07-10T01:05:06;101433.00;;;11.48;99.65
61786;BME280;47692;53.714;11.372;2022-07-10T01:07:31;101438.97;;;11.56;99.57
61786;BME280;47692;53.714;11.372;2022-07-10T01:09:57;101434.63;;;11.55;98.98
61786;BME280;47692;53.714;11.372;2022-07-10T01:12:24;101431.13;;;11.56;99.20
61786;BME280;47692;53.714;11.372;2022-07-10T01:14:50;101418.97;;;11.52;99.59
61786;BME280;47692;53.714;11.372;2022-07-10T01:17:16;101424.16;;;11.55;99.45
61786;BME280;47692;53.714;11.372;2022-07-10T01:19:42;101428.50;;;11.55;99.28
61786;BME280;47692;53.714;11.372;2022-07-10T01:22:07;101429.34;;;11.58;99.54
61786;BME280;47692;53.714;11.372;2022-07-10T01:24:33;101428.34;;;11.66;99.17
61786;BME280;47692;53.714;11.372;2022-07-10T01:26:58;101418.78;;;11.64;98.54
61786;BME280;47692;53.714;11.372;2022-07-10T01:29:24;101429.25;;;11.64;98.80
61786;BME280;47692;53.714;11.372;2022-07-10T01:31:49;101428.31;;;11.69;98.94
61786;BME280;47692;53.714;11.372;2022-07-10T01:34:15;101426.59;;;11.66;98.48
61786;BME280;47692;53.714;11.372;2022-07-10T01:36:41;101420.47;;;11.69;98.71
61786;BME280;47692;53.714;11.372;2022-07-10T01:39:07;101429.16;;;11.71;98.24
61786;BME280;47692;53.714;11.372;2022-07-10T01:41:32;101422.25;;;11.67;98.88
61786;BME280;47692;53.714;11.372;2022-07-10T01:43:58;101416.09;;;11.69;98.36
61786;BME280;47692;53.714;11.372;2022-07-10T01:46:24;101415.25;;;11.69;98.92
61786;BME280;47692;53.714;11.372;2022-07-10T01:48:50;101412.63;;;11.69;99.04
61786;BME280;47692;53.714;11.372;2022-07-10T01:51:16;101417.00;;;11.67;99.79
61786;BME280;47692;53.714;11.372;2022-07-10T01:53:42;101406.47;;;11.70;99.43
61786;BME280;47692;53.714;11.372;2022-07-10T01:56:10;101408.28;;;11.68;99.62
61786;BME280;47692;53.714;11.372;2022-07-10T01:58:36;101409.22;;;11.62;100.00
61786;BME280;47692;53.714;11.372;2022-07-10T02:01:03;101398.91;;;11.54;100.00
61786;BME280;47692;53.714;11.372;2022-07-10T02:03:28;101408.59;;;11.46;100.00
61786;BME280;47692;53.714;11.372;2022-07-10T02:06:12;101410.44;;;11.41;100.00
61786;BME280;47692;53.714;11.372;2022-07-10T02:08:38;101420.91;;;11.39;100.00
61786;BME280;47692;53.714;11.372;2022-07-10T02:11:03;101415.75;;;11.35;100.00
61786;BME280;47692;53.714;11.372;2022-07-10T02:13:29;101412.34;;;11.29;100.00
61786;BME280;47692;53.714;11.372;2022-07-10T02:15:55;101414.09;;;11.27;100.00
61786;BME280;47692;53.714;11.372;2022-07-10T02:18:21;101414.91;;;11.34;100.00
61786;BME280;47692;53.714;11.372;2022-07-10T02:20:46;101413.94;;;11.40;100.00
61786;BME280;47692;53.714;11.372;2022-07-10T02:23:12;101406.94;;;11.42;100.00
61786;BME280;47692;53.714;11.372;2022-07-10T02:25:38;101415.63;;;11.44;100.00
61786;BME280;47692;53.714;11.372;2022-07-10T02:28:03;101408.66;;;11.43;100.00
61786;BME280;47692;53.714;11.372;2022-07-10T02:30:29;101406.00;;;11.46;100.00
61786;BME280;47692;53.714;11.372;2022-07-10T02:32:54;101411.25;;;11.44;100.00
61786;BME280;47692;53.714;11.372;2022-07-10T02:35:19;101407.75;;;11.45;100.00
61786;BME280;47692;53.714;11.372;2022-07-10T02:37:45;101405.91;;;11.52;100.00
61786;BME280;47692;53.714;11.372;2022-07-10T02:40:10;101406.75;;;11.54;100.00
61786;BME280;47692;53.714;11.372;2022-07-10T02:42:36;101408.47;;;11.55;100.00
61786;BME280;47692;53.714;11.372;2022-07-10T02:45:01;101400.63;;;11.55;100.00
61786;BME280;47692;53.714;11.372;2022-07-10T02:47:27;101397.94;;;11.58;100.00
61786;BME280;47692;53.714;11.372;2022-07-10T02:49:52;101402.41;;;11.53;100.00
61786;BME280;47692;53.714;11.372;2022-07-10T02:52:17;101406.75;;;11.54;100.00
61786;BME280;47692;53.714;11.372;2022-07-10T02:54:43;101398.00;;;11.55;100.00
61786;BME280;47692;53.714;11.372;2022-07-10T02:57:08;101401.50;;;11.54;100.00
61786;BME280;47692;53.714;11.372;2022-07-10T02:59:34;101401.50;;;11.54;100.00
61786;BME280;47692;53.714;11.372;2022-07-10T03:01:59;101408.47;;;11.55;100.00
61786;BME280;47692;53.714;11.372;2022-07-10T03:04:26;101412.78;;;11.58;100.00
61786;BME280;47692;53.714;11.372;2022-07-10T03:06:51;101417.16;;;11.57;100.00
61786;BME280;47692;53.714;11.372;2022-07-10T03:09:16;101414.53;;;11.57;100.00
61786;BME280;47692;53.714;11.372;2022-07-10T03:11:42;101417.09;;;11.60;100.00
61786;BME280;47692;53.714;11.372;2022-07-10T03:14:07;101417.16;;;11.57;100.00
61786;BME280;47692;53.714;11.372;2022-07-10T03:16:33;101412.81;;;11.56;100.00
61786;BME280;47692;53.714;11.372;2022-07-10T03:18:58;101417.16;;;11.57;99.57
61786;BME280;47692;53.714;11.372;2022-07-10T03:21:23;101420.66;;;11.56;99.43
61786;BME280;47692;53.714;11.372;2022-07-10T03:23:49;101417.09;;;11.60;99.51
61786;BME280;47692;53.714;11.372;2022-07-10T03:26:15;101415.44;;;11.56;99.05
61786;BME280;47692;53.714;11.372;2022-07-10T03:28:41;101418.88;;;11.58;98.41
61786;BME280;47692;53.714;11.372;2022-07-10T03:31:06;101415.44;;;11.56;98.19
61786;BME280;47692;53.714;11.372;2022-07-10T03:33:32;101418.84;;;11.61;97.62
61786;BME280;47692;53.714;11.372;2022-07-10T03:35:58;101418.78;;;11.64;97.44
61786;BME280;47692;53.714;11.372;2022-07-10T03:38:23;101419.66;;;11.63;96.69
61786;BME280;47692;53.714;11.372;2022-07-10T03:40:48;101430.13;;;11.63;96.71
61786;BME280;47692;53.714;11.372;2022-07-10T03:43:14;101423.06;;;11.70;96.26
61786;BME280;47692;53.714;11.372;2022-07-10T03:45:40;101421.34;;;11.66;95.88
61786;BME280;47692;53.714;11.372;2022-07-10T03:48:05;101420.59;;;11.59;95.59
61786;BME280;47692;53.714;11.372;2022-07-10T03:50:32;101416.34;;;11.54;96.02
61786;BME280;47692;53.714;11.372;2022-07-10T03:52:57;101417.31;;;11.48;95.91
61786;BME280;47692;53.714;11.372;2022-07-10T03:55:22;101412.16;;;11.42;96.25
61786;BME280;47692;53.714;11.372;2022-07-10T03:57:48;101405.22;;;11.39;96.62
61786;BME280;47692;53.714;11.372;2022-07-10T04:00:23;101407.03;;;11.36;97.44
61786;BME280;47692;53.714;11.372;2022-07-10T04:03:00;101406.94;;;11.42;97.05
61786;BME280;47692;53.714;11.372;2022-07-10T04:05:26;101412.09;;;11.45;96.40
61786;BME280;47692;53.714;11.372;2022-07-10T04:07:53;101399.84;;;11.50;96.05
61786;BME280;47692;53.714;11.372;2022-07-10T04:10:19;101402.38;;;11.55;95.38
61786;BME280;47692;53.714;11.372;2022-07-10T04:12:44;101395.50;;;11.49;94.59
61786;BME280;47692;53.714;11.372;2022-07-10T04:15:10;101399.03;;;11.45;94.95
61786;BME280;47692;53.714;11.372;2022-07-10T04:17:36;101394.72;;;11.44;94.85
61786;BME280;47692;53.714;11.372;2022-07-10T04:20:01;101395.59;;;11.43;95.79
61786;BME280;47692;53.714;11.372;2022-07-10T04:22:27;101392.09;;;11.42;95.89
61786;BME280;47692;53.714;11.372;2022-07-10T04:24:55;101387.59;;;11.52;95.54
61786;BME280;47692;53.714;11.372;2022-07-10T04:27:21;101396.28;;;11.54;95.45
61786;BME280;47692;53.714;11.372;2022-07-10T04:29:47;101389.19;;;11.62;95.04
61786;BME280;47692;53.714;11.372;2022-07-10T04:32:13;101394.38;;;11.64;95.13
61786;BME280;47692;53.714;11.372;2022-07-10T04:34:38;101389.09;;;11.67;95.06
61786;BME280;47692;53.714;11.372;2022-07-10T04:37:05;101392.47;;;11.74;94.37
61786;BME280;47692;53.714;11.372;2022-07-10T04:39:30;101389.09;;;11.69;94.18
61786;BME280;47692;53.714;11.372;2022-07-10T04:41:56;101382.16;;;11.64;93.57
61786;BME280;47692;53.714;11.372;2022-07-10T04:44:21;101382.19;;;11.63;93.94
61786;BME280;47692;53.714;11.372;2022-07-10T04:46:46;101388.16;;;11.70;93.99
61786;BME280;47692;53.714;11.372;2022-07-10T04:49:13;101389.91;;;11.71;93.26
61786;BME280;47692;53.714;11.372;2022-07-10T04:51:38;101385.47;;;11.76;93.27
61786;BME280;47692;53.714;11.372;2022-07-10T04:54:03;101383.63;;;11.83;93.38
61786;BME280;47692;53.714;11.372;2022-07-10T04:56:29;101386.97;;;11.89;92.92
61786;BME280;47692;53.714;11.372;2022-07-10T04:58:54;101376.50;;;11.89;93.26
61786;BME280;47692;53.714;11.372;2022-07-10T05:01:19;101379.00;;;11.97;93.00
61786;BME280;47692;53.714;11.372;2022-07-10T05:03:45;101383.31;;;12.00;92.94
61786;BME280;47692;53.714;11.372;2022-07-10T05:06:11;101385.03;;;12.04;92.54
61786;BME280;47692;53.714;11.372;2022-07-10T05:08:36;101386.75;;;12.05;92.16
61786;BME280;47692;53.714;11.372;2022-07-10T05:11:01;101395.53;;;12.01;92.32
61786;BME280;47692;53.714;11.372;2022-07-10T05:13:26;101383.19;;;12.09;92.39
61786;BME280;47692;53.714;11.372;2022-07-10T05:15:52;101389.75;;;12.30;91.38
61786;BME280;47692;53.714;11.372;2022-07-10T05:18:17;101393.00;;;12.43;90.25
61786;BME280;47692;53.714;11.372;2022-07-10T05:20:43;101392.75;;;12.55;88.77
61786;BME280;47692;53.714;11.372;2022-07-10T05:23:10;101394.22;;;12.69;88.52
61786;BME280;47692;53.714;11.372;2022-07-10T05:25:36;101402.81;;;12.75;86.79
61786;BME280;47692;53.714;11.372;2022-07-10T05:28:05;101399.16;;;12.84;86.04
61786;BME280;47692;53.714;11.372;2022-07-10T05:30:31;101399.34;;;12.75;84.59
61786;BME280;47692;53.714;11.372;2022-07-10T05:32:57;101399.34;;;12.75;85.17
61786;BME280;47692;53.714;11.372;2022-07-10T05:35:22;101400.31;;;12.69;85.35
61786;BME280;47692;53.714;11.372;2022-07-10T05:37:48;101403.09;;;12.61;85.07
61786;BME280;47692;53.714;11.372;2022-07-10T05:40:13;101396.13;;;12.60;85.35
61786;BME280;47692;53.714;11.372;2022-07-10T05:42:39;101406.69;;;12.57;85.57
61786;BME280;47692;53.714;11.372;2022-07-10T05:45:05;101399.59;;;12.63;84.02
61786;BME280;47692;53.714;11.372;2022-07-10T05:47:31;101406.56;;;12.64;83.70
61786;BME280;47692;53.714;11.372;2022-07-10T05:49:58;101406.34;;;12.73;83.67
61786;BME280;47692;53.714;11.372;2022-07-10T05:52:23;101412.53;;;12.72;83.88
61786;BME280;47692;53.714;11.372;2022-07-10T05:54:48;101410.03;;;12.66;83.53
61786;BME280;47692;53.714;11.372;2022-07-10T05:57:14;101422.03;;;12.76;83.52
61786;BME280;47692;53.714;11.372;2022-07-10T05:59:39;101420.19;;;12.81;84.19
61786;BME280;47692;53.714;11.372;2022-07-10T06:02:04;101414.69;;;12.93;84.25
61786;BME280;47692;53.714;11.372;2022-07-10T06:04:30;101408.72;;;12.87;83.97
61786;BME280;47692;53.714;11.372;2022-07-10T06:06:55;101415.66;;;12.88;83.81
61786;BME280;47692;53.714;11.372;2022-07-10T06:09:21;101418.53;;;12.77;83.43
61786;BME280;47692;53.714;11.372;2022-07-10T06:11:46;101416.78;;;12.76;83.69
61786;BME280;47692;53.714;11.372;2022-07-10T06:14:13;101413.41;;;12.71;83.72
61786;BME280;47692;53.714;11.372;2022-07-10T06:16:38;101408.16;;;12.71;84.42
61786;BME280;47692;53.714;11.372;2022-07-10T06:19:03;101406.59;;;13.03;85.55
61786;BME280;47692;53.714;11.372;2022-07-10T06:21:29;101403.13;;;13.43;84.72
61786;BME280;47692;53.714;11.372;2022-07-10T06:23:54;101400.50;;;13.79;80.92
61786;BME280;47692;53.714;11.372;2022-07-10T06:26:19;101399.44;;;14.19;78.72
61786;BME280;47692;53.714;11.372;2022-07-10T06:28:45;101400.81;;;14.64;77.74
61786;BME280;47692;53.714;11.372;2022-07-10T06:31:10;101397.84;;;15.07;74.16
61786;BME280;47692;53.714;11.372;2022-07-10T06:33:37;101397.94;;;15.32;73.02
61786;BME280;47692;53.714;11.372;2022-07-10T06:36:02;101397.44;;;15.21;71.69
61786;BME280;47692;53.714;11.372;2022-07-10T06:38:27;101397.84;;;15.35;72.67
61786;BME280;47692;53.714;11.372;2022-07-10T06:40:53;101400.69;;;15.56;71.99
61786;BME280;47692;53.714;11.372;2022-07-10T06:43:18;101404.94;;;15.60;70.38
61786;BME280;47692;53.714;11.372;2022-07-10T06:45:44;101403.22;;;15.32;70.67
61786;BME280;47692;53.714;11.372;2022-07-10T06:48:10;101401.38;;;15.34;70.46
61786;BME280;47692;53.714;11.372;2022-07-10T06:50:35;101399.28;;;15.45;70.73
61786;BME280;47692;53.714;11.372;2022-07-10T06:53:02;101395.31;;;15.59;69.26
61786;BME280;47692;53.714;11.372;2022-07-10T06:55:28;101404.09;;;15.86;69.17
61786;BME280;47692;53.714;11.372;2022-07-10T06:57:54;101402.16;;;15.91;67.35
61786;BME280;47692;53.714;11.372;2022-07-10T07:00:20;101408.09;;;15.98;66.87
61786;BME280;47692;53.714;11.372;2022-07-10T07:02:45;101401.38;;;16.14;66.63
61786;BME280;47692;53.714;11.372;2022-07-10T07:05:12;101409.06;;;16.21;64.95
61786;BME280;47692;53.714;11.372;2022-07-10T07:07:37;101408.47;;;16.12;64.28
61786;BME280;47692;53.714;11.372;2022-07-10T07:10:03;101404.66;;;15.96;64.52
61786;BME280;47692;53.714;11.372;2022-07-10T07:12:29;101401.34;;;15.62;65.34
61786;BME280;47692;53.714;11.372;2022-07-10T07:14:54;101405.00;;;15.58;65.92
61786;BME280;47692;53.714;11.372;2022-07-10T07:17:20;101403.63;;;15.46;67.51
61786;BME280;47692;53.714;11.372;2022-07-10T07:19:51;101408.78;;;15.76;67.73
61786;BME280;47692;53.714;11.372;2022-07-10T07:22:35;101410.25;;;15.87;66.72
61786;BME280;47692;53.714;11.372;2022-07-10T07:25:19;101411.94;;;15.61;66.06
61786;BME280;47692;53.714;11.372;2022-07-10T07:27:44;101406.88;;;15.26;67.48
61786;BME280;47692;53.714;11.372;2022-07-10T07:30:12;101414.97;;;15.48;68.79
61786;BME280;47692;53.714;11.372;2022-07-10T07:32:42;101415.69;;;15.80;67.95
61786;BME280;47692;53.714;11.372;2022-07-10T07:35:09;101418.41;;;16.29;66.91
61786;BME280;47692;53.714;11.372;2022-07-10T07:40:09;101415.97;;;15.71;65.56
61786;BME280;47692;53.714;11.372;2022-07-10T07:42:35;101410.72;;;15.71;66.34
61786;BME280;47692;53.714;11.372;2022-07-10T07:45:00;101415.25;;;15.94;65.19
61786;BME280;47692;53.714;11.372;2022-07-10T07:47:26;101413.69;;;16.14;65.35
61786;BME280;47692;53.714;11.372;2022-07-10T07:49:52;101403.66;;;16.49;65.20
61786;BME280;47692;53.714;11.372;2022-07-10T07:52:17;101409.94;;;16.94;64.30
61786;BME280;47692;53.714;11.372;2022-07-10T07:54:43;101397.75;;;17.14;62.07
61786;BME280;47692;53.714;11.372;2022-07-10T07:57:08;101399.97;;;17.24;62.18
61786;BME280;47692;53.714;11.372;2022-07-10T07:59:33;101403.06;;;17.34;62.58
61786;BME280;47692;53.714;11.372;2022-07-10T08:01:59;101396.19;;;17.08;62.71
61786;BME280;47692;53.714;11.372;2022-07-10T08:04:25;101410.13;;;16.64;63.31
61786;BME280;47692;53.714;11.372;2022-07-10T08:06:50;101415.31;;;16.91;65.01
61786;BME280;47692;53.714;11.372;2022-07-10T08:09:20;101397.56;;;16.96;63.05
61786;BME280;47692;53.714;11.372;2022-07-10T08:11:47;101407.03;;;16.76;63.30
61786;BME280;47692;53.714;11.372;2022-07-10T08:14:13;101410.59;;;16.52;65.40
61786;BME280;47692;53.714;11.372;2022-07-10T08:16:39;101409.09;;;16.44;65.78
61786;BME280;47692;53.714;11.372;2022-07-10T08:19:05;101411.19;;;16.35;64.29
61786;BME280;47692;53.714;11.372;2022-07-10T08:21:30;101403.72;;;16.47;64.41
61786;BME280;47692;53.714;11.372;2022-07-10T08:23:56;101400.41;;;16.66;63.15
61786;BME280;47692;53.714;11.372;2022-07-10T08:26:21;101407.28;;;16.94;62.39
61786;BME280;47692;53.714;11.372;2022-07-10T08:28:46;101411.25;;;17.06;61.85
61786;BME280;47692;53.714;11.372;2022-07-10T08:31:12;101415.63;;;16.82;61.92
61786;BME280;47692;53.714;11.372;2022-07-10T08:33:37;101407.16;;;16.73;63.02
61786;BME280;47692;53.714;11.372;2022-07-10T08:36:04;101403.56;;;17.22;61.91
61786;BME280;47692;53.714;11.372;2022-07-10T08:38:29;101408.25;;;17.37;61.94
61786;BME280;47692;53.714;11.372;2022-07-10T08:40:56;101406.03;;;17.26;60.36
61786;BME280;47692;53.714;11.372;2022-07-10T08:43:23;101415.56;;;17.07;61.04
61786;BME280;47692;53.714;11.372;2022-07-10T08:45:50;101423.06;;;17.18;61.00
61786;BME280;47692;53.714;11.372;2022-07-10T08:48:20;101423.44;;;17.08;61.24
61786;BME280;47692;53.714;11.372;2022-07-10T08:50:47;101422.31;;;16.92;59.86
61786;BME280;47692;53.714;11.372;2022-07-10T08:53:16;101414.81;;;16.79;60.95
61786;BME280;47692;53.714;11.372;2022-07-10T08:55:44;101405.97;;;17.06;61.04
61786;BME280;47692;53.714;11.372;2022-07-10T08:58:11;101418.53;;;17.86;61.24
61786;BME280;47692;53.714;11.372;2022-07-10T09:00:37;101420.63;;;18.21;60.41
61786;BME280;47692;53.714;11.372;2022-07-10T09:03:03;101427.19;;;17.90;58.79
61786;BME280;47692;53.714;11.372;2022-07-10T09:05:29;101427.84;;;17.74;61.33
61786;BME280;47692;53.714;11.372;2022-07-10T09:07:55;101423.81;;;18.08;60.92
61786;BME280;47692;53.714;11.372;2022-07-10T09:10:24;101422.88;;;18.09;61.02
61786;BME280;47692;53.714;11.372;2022-07-10T09:15:17;101426.00;;;17.76;61.39
61786;BME280;47692;53.714;11.372;2022-07-10T09:17:54;101424.31;;;17.53;62.32
61786;BME280;47692;53.714;11.372;2022-07-10T09:20:35;101435.22;;;17.44;61.95
61786;BME280;47692;53.714;11.372;2022-07-10T09:23:21;101426.28;;;17.26;62.27
61786;BME280;47692;53.714;11.372;2022-07-10T09:25:49;101430.94;;;17.19;63.32
61786;BME280;47692;53.714;11.372;2022-07-10T09:28:19;101424.19;;;17.12;63.23
61786;BME280;47692;53.714;11.372;2022-07-10T09:30:46;101421.78;;;17.28;63.14
61786;BME280;47692;53.714;11.372;2022-07-10T09:33:28;101422.69;;;17.49;62.94
61786;BME280;47692;53.714;11.372;2022-07-10T09:36:06;101427.28;;;17.46;62.07
61786;BME280;47692;53.714;11.372;2022-07-10T09:46:30;101429.19;;;17.42;60.38
61786;BME280;47692;53.714;11.372;2022-07-10T09:49:04;101429.19;;;17.42;61.08
61786;BME280;47692;53.714;11.372;2022-07-10T09:51:31;101419.13;;;17.72;60.54
61786;BME280;47692;53.714;11.372;2022-07-10T09:54:01;101430.53;;;17.95;60.49
61786;BME280;47692;53.714;11.372;2022-07-10T09:56:32;101415.06;;;18.27;58.94
61786;BME280;47692;53.714;11.372;2022-07-10T09:59:00;101430.63;;;18.94;59.00
61786;BME280;47692;53.714;11.372;2022-07-10T10:01:27;101425.91;;;19.00;56.97
61786;BME280;47692;53.714;11.372;2022-07-10T10:03:53;101411.31;;;18.33;56.68
61786;BME280;47692;53.714;11.372;2022-07-10T10:06:20;101412.69;;;18.80;59.79
61786;BME280;47692;53.714;11.372;2022-07-10T10:11:27;101423.72;;;19.28;58.17
61786;BME280;47692;53.714;11.372;2022-07-10T10:13:53;101418.03;;;19.18;55.42
61786;BME280;47692;53.714;11.372;2022-07-10T10:16:21;101414.06;;;19.46;56.66
61786;BME280;47692;53.714;11.372;2022-07-10T10:18:47;101419.47;;;19.79;55.04
61786;BME280;47692;53.714;11.372;2022-07-10T10:21:32;101422.19;;;20.30;55.75
61786;BME280;47692;53.714;11.372;2022-07-10T10:23:58;101419.53;;;20.30;54.85
61786;BME280;47692;53.714;11.372;2022-07-10T10:26:25;101425.78;;;19.77;55.47
61786;BME280;47692;53.714;11.372;2022-07-10T10:28:52;101419.59;;;19.22;56.01
61786;BME280;47692;53.714;11.372;2022-07-10T10:31:18;101426.44;;;18.88;56.92
61786;BME280;47692;53.714;11.372;2022-07-10T10:33:45;101424.72;;;18.87;58.22
61786;BME280;47692;53.714;11.372;2022-07-10T10:36:42;101421.16;;;18.88;57.48
61786;BME280;47692;53.714;11.372;2022-07-10T10:39:02;101415.38;;;19.18;57.87
61786;BME280;47692;53.714;11.372;2022-07-10T10:41:30;101415.75;;;19.10;57.67
61786;BME280;47692;53.714;11.372;2022-07-10T10:46:38;101408.34;;;19.17;58.07
61786;BME280;47692;53.714;11.372;2022-07-10T10:49:19;101404.31;;;19.46;57.07
61786;BME280;47692;53.714;11.372;2022-07-10T10:51:58;101399.94;;;19.45;56.04
61786;BME280;47692;53.714;11.372;2022-07-10T10:59:57;101400.06;;;19.96;54.25
61786;BME280;47692;53.714;11.372;2022-07-10T11:02:26;101397.69;;;19.73;53.41
61786;BME280;47692;53.714;11.372;2022-07-10T11:08:01;101396.31;;;19.83;53.88
61786;BME280;47692;53.714;11.372;2022-07-10T11:10:43;101393.47;;;20.21;51.71
61786;BME280;47692;53.714;11.372;2022-07-10T11:13:14;101397.50;;;19.95;52.53
61786;BME280;47692;53.714;11.372;2022-07-10T11:15:44;101394.41;;;19.50;52.83
61786;BME280;47692;53.714;11.372;2022-07-10T11:18:12;101400.03;;;19.79;53.75
61786;BME280;47692;53.714;11.372;2022-07-10T11:20:40;101388.69;;;19.94;52.35
61786;BME280;47692;53.714;11.372;2022-07-10T11:31:03;101375.81;;;19.69;53.05
61786;BME280;47692;53.714;11.372;2022-07-10T11:33:42;101391.28;;;20.29;53.70
61786;BME280;47692;53.714;11.372;2022-07-10T11:36:10;101379.41;;;21.02;52.43
61786;BME280;47692;53.714;11.372;2022-07-10T11:38:38;101388.06;;;20.74;50.66
61786;BME280;47692;53.714;11.372;2022-07-10T11:41:04;101388.75;;;20.44;51.53
61786;BME280;47692;53.714;11.372;2022-07-10T11:43:29;101385.63;;;20.20;50.71
61786;BME280;47692;53.714;11.372;2022-07-10T11:45:54;101375.66;;;20.74;52.04
61786;BME280;47692;53.714;11.372;2022-07-10T11:48:24;101377.03;;;21.13;49.05
61786;BME280;47692;53.714;11.372;2022-07-10T11:50:50;101372.91;;;20.92;48.44
61786;BME280;47692;53.714;11.372;2022-07-10T11:53:22;101370.41;;;20.23;48.71
61786;BME280;47692;53.714;11.372;2022-07-10T11:55:48;101376.91;;;19.82;51.33
61786;BME280;47692;53.714;11.372;2022-07-10T11:58:18;101377.91;;;19.62;51.77
61786;BME280;47692;53.714;11.372;2022-07-10T12:00:44;101389.31;;;19.64;53.31
61786;BME280;47692;53.714;11.372;2022-07-10T12:03:21;101388.06;;;19.89;52.52
61786;BME280;47692;53.714;11.372;2022-07-10T12:05:47;101386.16;;;19.74;51.62
61786;BME280;47692;53.714;11.372;2022-07-10T12:08:13;101401.47;;;20.04;52.63
61786;BME280;47692;53.714;11.372;2022-07-10T12:10:39;101394.59;;;20.17;51.54
61786;BME280;47692;53.714;11.372;2022-07-10T12:13:10;101388.56;;;20.80;51.40
61786;BME280;47692;53.714;11.372;2022-07-10T12:18:07;101384.56;;;21.05;49.44
61786;BME280;47692;53.714;11.372;2022-07-10T12:20:33;101382.16;;;21.01;51.84
61786;BME280;47692;53.714;11.372;2022-07-10T12:22:59;101395.84;;;20.77;51.91
61786;BME280;47692;53.714;11.372;2022-07-10T12:25:25;101394.25;;;20.57;51.81
61786;BME280;47692;53.714;11.372;2022-07-10T12:27:57;101398.13;;;20.33;51.11
61786;BME280;47692;53.714;11.372;2022-07-10T12:30:46;101390.22;;;20.16;52.24
61786;BME280;47692;53.714;11.372;2022-07-10T12:33:12;101391.34;;;19.94;52.00
61786;BME280;47692;53.714;11.372;2022-07-10T12:38:18;101400.22;;;20.44;50.59
61786;BME280;47692;53.714;11.372;2022-07-10T12:40:43;101395.44;;;20.51;51.50
61786;BME280;47692;53.714;11.372;2022-07-10T12:43:08;101404.03;;;20.39;51.18
61786;BME280;47692;53.714;11.372;2022-07-10T12:45:37;101406.22;;;20.48;52.23
61786;BME280;47692;53.714;11.372;2022-07-10T12:48:04;101407.28;;;20.61;51.36
61786;BME280;47692;53.714;11.372;2022-07-10T12:50:31;101397.22;;;20.84;49.73
61786;BME280;47692;53.714;11.372;2022-07-10T12:53:10;101408.69;;;20.85;50.59
61786;BME280;47692;53.714;11.372;2022-07-10T12:55:39;101414.59;;;20.56;49.99
61786;BME280;47692;53.714;11.372;2022-07-10T12:58:09;101399.91;;;20.66;50.83
61786;BME280;47692;53.714;11.372;2022-07-10T13:00:44;101398.41;;;20.94;50.04
61786;BME280;47692;53.714;11.372;2022-07-10T13:03:11;101412.03;;;20.55;50.66
61786;BME280;47692;53.714;11.372;2022-07-10T13:05:39;101416.25;;;20.08;51.19
61786;BME280;47692;53.714;11.372;2022-07-10T13:08:06;101417.78;;;19.59;52.48
61786;BME280;47692;53.714;11.372;2022-07-10T13:10:33;101411.41;;;19.46;53.07
61786;BME280;47692;53.714;11.372;2022-07-10T13:12:59;101417.47;;;19.65;53.09
61786;BME280;47692;53.714;11.372;2022-07-10T13:15:24;101418.22;;;20.38;52.68
61786;BME280;47692;53.714;11.372;2022-07-10T13:17:49;101413.16;;;20.84;50.43